Time;durP1;ratioP1;P1;durP2;ratioP2;P2;SDS_P1;SDS_P2;PMS_P1;PMS_P2;Temp;Humidity;BMP_temperature;BMP_pressure;BME280_temperature;BME280_humidity;BME280_pressure;Samples;Min_cycle;Max_cycle;Signal;HPM_P1;HPM_P2
2022/09/12 00:01:21;;;;;;;1.90;1.50;;;;;;;13.85;82.79;98329.00;6218374;23;20020;-85
2022/09/12 00:03:57;;;;;;;1.67;1.38;;;;;;;13.78;82.87;98321.16;6217631;23;20066;-86
2022/09/12 00:06:28;;;;;;;1.40;1.30;;;;;;;13.89;83.01;98343.38;6244280;23;20019;-86
2022/09/12 00:08:58;;;;;;;1.63;1.52;;;;;;;13.85;82.39;98334.28;6217741;23;20016;-85
2022/09/12 00:11:26;;;;;;;1.90;1.63;;;;;;;13.77;82.21;98342.47;6243123;23;20020;-86
2022/09/12 00:13:59;;;;;;;1.40;1.27;;;;;;;13.68;82.43;98331.38;6217021;23;20020;-86
2022/09/12 00:16:30;;;;;;;1.30;1.20;;;;;;;13.70;82.24;98339.06;6218314;23;20020;-86
2022/09/12 00:18:56;;;;;;;1.67;1.57;;;;;;;13.67;82.38;98319.19;6217511;23;20027;-86
2022/09/12 00:21:23;;;;;;;1.40;1.30;;;;;;;13.66;81.93;98322.88;6193115;23;20319;-86
2022/09/12 00:23:50;;;;;;;2.00;1.80;;;;;;;13.55;82.28;98329.63;6244505;23;20039;-86
2022/09/12 00:26:19;;;;;;;1.95;1.80;;;;;;;13.55;82.60;98342.78;6236655;22;20426;-86
2022/09/12 00:28:47;;;;;;;1.27;1.17;;;;;;;13.51;82.88;98336.34;6244558;22;20333;-86
2022/09/12 00:31:20;;;;;;;1.48;1.38;;;;;;;13.57;82.88;98332.06;6217475;23;20020;-86
2022/09/12 00:33:47;;;;;;;1.45;1.35;;;;;;;13.52;82.13;98327.41;6243732;22;20051;-83
2022/09/12 00:36:21;;;;;;;1.30;1.20;;;;;;;13.54;82.21;98325.38;6244104;22;20020;-85
2022/09/12 00:38:50;;;;;;;1.50;1.40;;;;;;;13.54;82.07;98341.19;6242477;23;20046;-86
2022/09/12 00:41:26;;;;;;;1.40;1.30;;;;;;;13.46;82.67;98328.28;6242826;23;20047;-86
2022/09/12 00:43:58;;;;;;;1.50;1.40;;;;;;;13.47;82.24;98331.72;6241895;23;20437;-84
2022/09/12 00:46:47;;;;;;;1.58;1.40;;;;;;;13.50;82.10;98326.03;6239244;23;20016;-85
2022/09/12 00:49:30;;;;;;;3.30;1.58;;;;;;;13.50;82.22;98328.66;6244968;22;20338;-83
2022/09/12 00:52:20;;;;;;;1.48;1.33;;;;;;;13.47;82.20;98329.88;6268855;22;20026;-84
2022/09/12 00:55:18;;;;;;;1.60;1.45;;;;;;;13.50;81.73;98323.41;6244412;22;20103;-84
2022/09/12 00:57:56;;;;;;;1.58;1.45;;;;;;;13.42;81.81;98313.91;6235834;23;20034;-84
2022/09/12 01:00:26;;;;;;;1.45;1.35;;;;;;;13.30;82.50;98291.88;6243064;23;20016;-85
2022/09/12 01:03:08;;;;;;;1.42;1.33;;;;;;;13.35;82.74;98311.31;6243127;23;20016;-86
2022/09/12 01:05:43;;;;;;;1.40;1.30;;;;;;;13.38;82.53;98310.09;6245674;22;20450;-86
2022/09/12 01:08:10;;;;;;;1.52;1.42;;;;;;;13.30;83.37;98310.31;6242281;23;20103;-86
2022/09/12 01:10:41;;;;;;;2.08;1.88;;;;;;;13.30;83.74;98310.31;6244686;22;20024;-86
2022/09/12 01:13:09;;;;;;;1.58;1.40;;;;;;;13.19;83.15;98301.22;6245009;22;20103;-86
2022/09/12 01:15:38;;;;;;;2.30;2.10;;;;;;;13.08;83.32;98302.72;6244645;22;20022;-87
2022/09/12 01:18:31;;;;;;;2.55;1.80;;;;;;;13.05;83.38;98318.94;6218267;23;20027;-86
2022/09/12 01:21:23;;;;;;;1.42;1.33;;;;;;;13.08;83.13;98309.81;6217297;23;20052;-85
2022/09/12 01:24:23;;;;;;;1.42;1.30;;;;;;;13.10;82.36;98300.69;6242728;23;20058;-87
2022/09/12 01:27:16;;;;;;;1.50;1.40;;;;;;;13.13;82.19;98302.06;6244629;22;20020;-87
2022/09/12 01:30:01;;;;;;;1.75;1.30;;;;;;;13.16;82.29;98295.59;6244465;22;20323;-87
2022/09/12 01:32:52;;;;;;;1.70;1.60;;;;;;;13.08;82.49;98288.75;6242131;23;20095;-86
2022/09/12 01:35:38;;;;;;;1.60;1.50;;;;;;;13.08;82.51;98299.28;6242337;23;20016;-86
2022/09/12 01:38:35;;;;;;;1.30;1.20;;;;;;;13.10;82.94;98303.31;6244897;22;20020;-86
2022/09/12 01:41:29;;;;;;;1.38;1.17;;;;;;;13.12;82.78;98292.56;6244195;22;20016;-87
2022/09/12 01:44:25;;;;;;;1.40;1.30;;;;;;;13.12;82.28;98293.38;6241694;23;20087;-87
2022/09/12 01:47:09;;;;;;;1.58;1.40;;;;;;;13.03;81.70;98293.84;6238340;23;20098;-87
2022/09/12 01:50:17;;;;;;;2.25;1.20;;;;;;;12.97;81.55;98284.16;6242990;23;20641;-87
2022/09/12 01:52:53;;;;;;;1.50;1.40;;;;;;;12.91;81.66;98277.09;6244828;23;20031;-91
2022/09/12 01:55:28;;;;;;;1.48;1.38;;;;;;;12.78;81.68;98259.53;6245963;22;20073;-92
2022/09/12 01:58:14;;;;;;;1.23;1.13;;;;;;;12.84;82.49;98282.38;6218739;23;20020;-92
2022/09/12 02:01:09;;;;;;;1.58;1.48;;;;;;;12.79;82.60;98275.13;6220721;23;20111;-92
2022/09/12 02:04:16;;;;;;;1.38;1.27;;;;;;;12.73;82.40;98259.34;6220202;23;20030;-92
2022/09/12 02:06:54;;;;;;;1.23;1.13;;;;;;;12.77;82.47;98271.06;6219480;23;20020;-93
2022/09/12 02:09:51;;;;;;;1.15;1.10;;;;;;;12.78;82.31;98280.59;6221342;23;20501;-92
2022/09/12 02:12:28;;;;;;;1.40;1.30;;;;;;;12.78;82.53;98284.03;6221724;23;20418;-93
2022/09/12 02:15:06;;;;;;;2.03;1.92;;;;;;;12.52;81.38;98268.31;6220644;23;20016;-92
2022/09/12 02:17:41;;;;;;;1.77;1.67;;;;;;;12.50;81.85;98276.44;6221019;23;20020;-93
2022/09/12 02:20:19;;;;;;;1.52;1.42;;;;;;;12.40;82.39;98265.53;6221878;23;20066;-92
2022/09/12 02:23:14;;;;;;;1.05;1.02;;;;;;;12.42;81.97;98268.78;6246603;23;20016;-92
2022/09/12 02:25:47;;;;;;;1.30;1.20;;;;;;;12.41;82.36;98269.75;6209569;23;20020;-91
2022/09/12 02:28:25;;;;;;;2.88;1.50;;;;;;;12.23;81.92;98261.72;6195483;23;20091;-92
2022/09/12 02:31:36;;;;;;;1.70;1.60;;;;;;;12.20;82.75;98264.78;6222381;23;20066;-93
2022/09/12 02:34:27;;;;;;;1.60;1.50;;;;;;;12.12;82.89;98268.44;6197669;23;20027;-92
2022/09/12 02:37:29;;;;;;;1.08;1.00;;;;;;;12.11;83.20;98266.00;6197148;23;20020;-93
2022/09/12 02:39:58;;;;;;;1.17;1.08;;;;;;;12.17;83.76;98271.25;6181537;23;20364;-93
2022/09/12 02:42:25;;;;;;;0.90;0.90;;;;;;;12.22;83.78;98263.53;6222381;23;20106;-93
2022/09/12 02:44:55;;;;;;;2.03;1.52;;;;;;;12.15;82.90;98262.75;6222402;23;20019;-92
2022/09/12 02:47:34;;;;;;;1.75;1.65;;;;;;;12.09;82.77;98254.88;6220849;23;20020;-91
2022/09/12 02:50:20;;;;;;;1.90;1.80;;;;;;;11.94;83.72;98249.88;6226566;23;20078;-92
2022/09/12 02:52:47;;;;;;;1.67;1.58;;;;;;;11.94;83.61;98260.38;6197324;23;20074;-93
2022/09/12 02:55:15;;;;;;;1.00;1.00;;;;;;;11.86;84.17;98253.50;6196949;23;20018;-94
2022/09/12 02:57:42;;;;;;;1.25;1.15;;;;;;;11.93;84.07;98259.53;6196600;23;20019;-93
2022/09/12 03:00:10;;;;;;;1.00;1.00;;;;;;;12.05;84.25;98257.94;6197139;23;20016;-93
2022/09/12 03:03:43;;;;;;;1.13;1.10;;;;;;;12.11;83.31;98260.72;6197349;23;20083;-93
2022/09/12 03:06:32;;;;;;;1.42;1.10;;;;;;;12.13;83.29;98272.69;6160790;23;20075;-93
2022/09/12 03:09:18;;;;;;;2.05;1.30;;;;;;;12.07;82.95;98276.13;6220980;23;20020;-94
2022/09/12 03:12:16;;;;;;;1.40;1.30;;;;;;;11.96;83.01;98269.66;6197202;23;20027;-93
2022/09/12 03:15:24;;;;;;;1.17;1.10;;;;;;;11.95;83.36;98260.16;6196655;23;20016;-92
2022/09/12 03:18:23;;;;;;;1.30;1.20;;;;;;;12.05;83.75;98270.25;6153133;23;20032;-93
2022/09/12 03:21:22;;;;;;;1.13;1.02;;;;;;;12.11;83.66;98256.28;6221008;23;20084;-92
2022/09/12 03:24:04;;;;;;;1.20;1.10;;;;;;;12.17;82.81;98260.72;6247332;23;20099;-93
2022/09/12 03:26:47;;;;;;;1.15;1.00;;;;;;;12.12;83.68;98252.66;6247475;22;20500;-92
2022/09/12 03:29:17;;;;;;;1.30;1.20;;;;;;;12.11;83.52;98242.34;6258873;22;20024;-92
2022/09/12 03:32:02;;;;;;;1.02;1.02;;;;;;;12.16;83.20;98253.03;6277897;22;20429;-90
2022/09/12 03:34:29;;;;;;;1.02;1.00;;;;;;;12.20;83.19;98243.75;6250694;22;20110;-92
2022/09/12 03:36:56;;;;;;;1.00;1.00;;;;;;;12.29;83.21;98260.91;6250805;22;20046;-91
2022/09/12 03:39:25;;;;;;;1.10;1.00;;;;;;;12.28;82.72;98254.84;6224915;22;20368;-93
2022/09/12 03:41:54;;;;;;;1.88;1.67;;;;;;;12.12;81.50;98267.63;6225358;22;20020;-92
2022/09/12 03:44:21;;;;;;;2.30;2.10;;;;;;;11.92;82.39;98265.00;6222165;22;20015;-82
2022/09/12 03:46:48;;;;;;;2.60;2.00;;;;;;;11.77;82.51;98255.50;6271000;22;20067;-83
2022/09/12 03:49:16;;;;;;;2.00;1.70;;;;;;;11.78;82.83;98262.38;6245739;22;20024;-82
2022/09/12 03:51:43;;;;;;;3.70;2.28;;;;;;;11.57;83.22;98259.94;6274340;22;20090;-82
2022/09/12 03:54:10;;;;;;;3.40;1.75;;;;;;;11.48;83.45;98267.22;6245872;22;20024;-82
2022/09/12 03:56:39;;;;;;;1.65;1.55;;;;;;;11.40;84.00;98256.09;6273339;22;20041;-83
2022/09/12 03:59:06;;;;;;;1.30;1.20;;;;;;;11.50;83.80;98274.88;6273203;22;20047;-83
2022/09/12 04:01:34;;;;;;;1.90;1.70;;;;;;;11.36;84.20;98255.69;6272694;22;20026;-83
2022/09/12 04:04:01;;;;;;;1.42;1.33;;;;;;;11.43;84.53;98251.25;6246736;22;20026;-83
2022/09/12 04:06:27;;;;;;;2.95;1.00;;;;;;;11.41;84.51;98249.84;6273666;22;20383;-83
2022/09/12 04:08:54;;;;;;;1.90;1.60;;;;;;;11.48;84.19;98264.59;6272924;22;20019;-82
2022/09/12 04:11:22;;;;;;;1.30;1.20;;;;;;;11.51;84.73;98264.19;6220621;22;20024;-83
2022/09/12 04:13:49;;;;;;;1.25;1.15;;;;;;;11.58;84.44;98271.28;6246051;22;20095;-82
2022/09/12 04:16:17;;;;;;;1.45;1.35;;;;;;;11.50;84.49;98259.94;6245483;22;20030;-82
2022/09/12 04:18:45;;;;;;;2.05;1.90;;;;;;;11.42;84.90;98272.47;6274684;22;20425;-82
2022/09/12 04:21:20;;;;;;;2.17;1.98;;;;;;;11.37;85.25;98265.19;6275365;22;20102;-82
2022/09/12 04:23:47;;;;;;;1.98;1.88;;;;;;;11.15;85.47;98254.03;6274383;22;20401;-82
2022/09/12 04:26:16;;;;;;;1.42;1.33;;;;;;;11.21;86.17;98276.06;6251687;22;20091;-82
2022/09/12 04:28:44;;;;;;;2.10;1.95;;;;;;;11.03;86.57;98263.50;6244456;23;20125;-82
2022/09/12 04:31:19;;;;;;;1.48;1.38;;;;;;;11.09;86.95;98272.38;6216893;23;20231;-82
2022/09/12 04:33:46;;;;;;;1.88;1.77;;;;;;;11.11;87.37;98280.91;6217856;23;20023;-82
2022/09/12 04:36:16;;;;;;;1.65;1.55;;;;;;;11.09;87.11;98259.25;6243910;23;20325;-82
2022/09/12 04:38:45;;;;;;;1.38;1.27;;;;;;;11.29;86.98;98261.94;6217494;23;20031;-82
2022/09/12 04:41:15;;;;;;;1.15;1.08;;;;;;;11.38;86.39;98256.28;6244086;23;20319;-83
2022/09/12 04:43:45;;;;;;;1.10;1.10;;;;;;;11.52;86.01;98265.81;6244162;23;20054;-83
2022/09/12 04:46:15;;;;;;;1.02;0.93;;;;;;;11.67;85.92;98259.53;6217618;23;20026;-82
2022/09/12 04:48:43;;;;;;;1.67;0.80;;;;;;;11.83;85.92;98263.63;6217877;23;20028;-82
2022/09/12 04:51:21;;;;;;;1.00;0.90;;;;;;;11.95;85.56;98256.72;6244035;23;20016;-82
2022/09/12 04:53:52;;;;;;;0.90;0.90;;;;;;;12.02;84.75;98253.06;6243755;23;20438;-82
2022/09/12 04:56:20;;;;;;;1.00;0.98;;;;;;;12.13;85.10;98250.84;6192276;23;20419;-83
2022/09/12 04:58:47;;;;;;;0.98;0.98;;;;;;;12.25;84.40;98246.56;6244493;23;20016;-82
2022/09/12 05:01:20;;;;;;;1.10;1.00;;;;;;;12.40;84.52;98255.00;6244745;23;20020;-82
2022/09/12 05:03:49;;;;;;;1.10;1.00;;;;;;;12.37;84.03;98259.88;6243603;23;20343;-83
2022/09/12 05:06:29;;;;;;;1.50;1.40;;;;;;;12.41;84.48;98269.75;6244053;23;20043;-83
2022/09/12 05:08:57;;;;;;;1.75;1.63;;;;;;;12.40;84.94;98270.78;6243678;23;20069;-83
2022/09/12 05:11:28;;;;;;;1.95;1.80;;;;;;;12.48;84.22;98267.94;6217026;23;20107;-83
2022/09/12 05:14:15;;;;;;;;;;;;;;;12.57;84.47;98266.69;6216762;23;20362;-82
2022/09/12 05:16:42;;;;;;;1.45;1.35;;;;;;;12.51;83.85;98264.09;6243164;23;20002;-83
2022/09/12 05:19:14;;;;;;;1.85;1.50;;;;;;;12.59;84.31;98269.09;6193446;23;20019;-83
2022/09/12 05:21:41;;;;;;;1.30;1.10;;;;;;;12.66;83.91;98269.09;6243185;23;20044;-82
2022/09/12 05:24:10;;;;;;;1.60;1.50;;;;;;;12.79;83.42;98287.47;6217303;23;20036;-84
2022/09/12 05:26:37;;;;;;;2.45;1.70;;;;;;;12.72;83.28;98278.78;6243867;22;20016;-83
2022/09/12 05:29:05;;;;;;;1.40;1.30;;;;;;;12.71;82.52;98271.91;6242549;23;20454;-83
2022/09/12 05:31:33;;;;;;;1.55;1.45;;;;;;;12.80;82.67;98281.19;6216787;23;20656;-83
2022/09/12 05:34:00;;;;;;;1.58;1.48;;;;;;;12.92;83.23;98289.22;6243524;23;20046;-83
2022/09/12 05:36:29;;;;;;;1.40;1.30;;;;;;;12.93;83.12;98289.00;6244089;23;20099;-84
2022/09/12 05:38:58;;;;;;;1.67;1.50;;;;;;;12.92;83.24;98289.22;6217772;23;20386;-83
2022/09/12 05:41:29;;;;;;;1.50;1.40;;;;;;;13.03;83.07;98289.38;6219860;23;20449;-92
2022/09/12 05:44:00;;;;;;;2.03;1.80;;;;;;;13.04;81.91;98283.09;6197554;23;20028;-94
2022/09/12 05:46:31;;;;;;;1.55;1.42;;;;;;;13.05;82.21;98286.53;6221392;23;20012;-93
2022/09/12 05:49:16;;;;;;;1.60;1.50;;;;;;;13.18;82.35;98289.09;6227418;23;20082;-94
2022/09/12 05:52:02;;;;;;;1.50;1.40;;;;;;;13.25;82.39;98289.88;6247887;23;20035;-93
2022/09/12 05:54:40;;;;;;;1.90;1.75;;;;;;;13.29;81.84;98287.63;6222209;23;20051;-93
2022/09/12 05:57:07;;;;;;;1.63;1.52;;;;;;;13.32;82.53;98288.03;6196914;23;20039;-93
2022/09/12 05:59:34;;;;;;;3.35;1.50;;;;;;;13.34;81.69;98291.25;6223274;23;20023;-93
2022/09/12 06:02:00;;;;;;;1.85;1.70;;;;;;;13.40;81.87;98294.88;6222741;23;20020;-92
2022/09/12 06:04:27;;;;;;;2.45;1.65;;;;;;;13.40;81.71;98305.41;6196911;23;20077;-91
2022/09/12 06:06:54;;;;;;;1.77;1.52;;;;;;;13.47;81.99;98298.25;6196783;23;20020;-94
2022/09/12 06:09:21;;;;;;;1.67;1.40;;;;;;;13.52;81.13;98285.25;6222372;23;20023;-93
2022/09/12 06:11:48;;;;;;;1.75;1.42;;;;;;;13.57;81.48;98295.97;6197010;23;20393;-92
2022/09/12 06:14:16;;;;;;;2.97;2.00;;;;;;;13.62;81.27;98308.53;6198012;23;20047;-92
2022/09/12 06:16:43;;;;;;;2.08;1.63;;;;;;;13.65;81.22;98315.97;6198076;23;20016;-93
2022/09/12 06:19:20;;;;;;;2.47;1.77;;;;;;;13.68;81.71;98302.38;6221922;23;20012;-93
2022/09/12 06:21:48;;;;;;;1.73;1.60;;;;;;;13.70;81.18;98302.97;6197167;23;20050;-93
2022/09/12 06:24:17;;;;;;;1.75;1.42;;;;;;;13.81;81.47;98306.75;6223165;23;20020;-93
2022/09/12 06:26:46;;;;;;;1.85;1.45;;;;;;;13.76;81.15;98303.94;6198330;23;20031;-93
2022/09/12 06:29:14;;;;;;;2.75;1.90;;;;;;;13.91;81.45;98312.31;6223764;23;20016;-93
2022/09/12 06:31:42;;;;;;;3.30;2.15;;;;;;;13.87;80.92;98305.88;6224022;23;20069;-94
2022/09/12 06:34:14;;;;;;;2.45;1.80;;;;;;;13.92;81.42;98311.31;6198130;23;20077;-94
2022/09/12 06:36:45;;;;;;;2.00;1.42;;;;;;;13.83;81.11;98288.88;6196942;23;20016;-93
2022/09/12 06:39:21;;;;;;;1.90;1.60;;;;;;;13.93;80.41;98303.19;6223308;23;20055;-94
2022/09/12 06:41:50;;;;;;;2.50;2.30;;;;;;;13.87;80.21;98306.69;6223469;23;20016;-94
2022/09/12 06:44:21;;;;;;;3.03;2.00;;;;;;;13.91;80.63;98310.53;6198311;23;20020;-94
2022/09/12 06:46:49;;;;;;;2.97;2.00;;;;;;;14.00;80.97;98311.03;6194997;23;20020;-89
2022/09/12 06:49:18;;;;;;;2.67;2.30;;;;;;;14.03;80.46;98297.41;6221931;23;20458;-93
2022/09/12 06:51:44;;;;;;;2.30;1.90;;;;;;;14.10;80.46;98294.75;6197715;23;20024;-92
2022/09/12 06:54:14;;;;;;;3.55;2.25;;;;;;;14.16;81.05;98301.78;6202276;23;20110;-93
2022/09/12 06:56:42;;;;;;;3.22;2.80;;;;;;;14.14;81.04;98312.53;6246855;23;20016;-93
2022/09/12 06:59:08;;;;;;;3.83;3.03;;;;;;;13.97;81.21;98281.66;6197232;23;20107;-93
2022/09/12 07:01:35;;;;;;;5.20;3.50;;;;;;;13.97;81.32;98295.63;6195698;23;20106;-93
2022/09/12 07:04:03;;;;;;;4.60;3.47;;;;;;;13.85;81.56;98300.00;6221245;23;20016;-92
2022/09/12 07:06:37;;;;;;;2.80;2.40;;;;;;;13.94;82.41;98288.19;6196228;23;20052;-94
2022/09/12 07:09:09;;;;;;;2.97;2.20;;;;;;;14.17;81.52;98298.94;6223259;23;20019;-93
2022/09/12 07:11:39;;;;;;;3.13;2.30;;;;;;;14.33;81.34;98302.00;6197777;23;20027;-93
2022/09/12 07:14:10;;;;;;;3.67;3.00;;;;;;;14.29;80.86;98295.56;6196671;23;20889;-94
2022/09/12 07:16:37;;;;;;;2.53;2.05;;;;;;;14.48;80.85;98294.59;6195254;23;20038;-93
2022/09/12 07:19:09;;;;;;;2.42;1.95;;;;;;;14.62;80.55;98303.16;6222832;23;20024;-93
2022/09/12 07:21:38;;;;;;;3.08;2.47;;;;;;;14.66;79.48;98291.13;6222037;23;20434;-93
2022/09/12 07:24:08;;;;;;;2.15;1.95;;;;;;;14.86;79.08;98306.72;6193849;23;20028;-88
2022/09/12 07:26:38;;;;;;;2.28;2.05;;;;;;;14.88;79.00;98288.84;6217007;23;20091;-86
2022/09/12 07:29:05;;;;;;;3.35;2.85;;;;;;;15.08;79.16;98296.53;6243727;23;20108;-85
2022/09/12 07:31:52;;;;;;;3.55;3.05;;;;;;;15.12;79.01;98297.69;6220068;23;20041;-87
2022/09/12 07:34:19;;;;;;;3.20;2.90;;;;;;;15.19;78.78;98280.72;6211405;23;20047;-86
2022/09/12 07:36:46;;;;;;;4.72;3.97;;;;;;;15.20;78.03;98295.53;6242217;23;20016;-87
2022/09/12 07:39:14;;;;;;;5.65;3.80;;;;;;;15.08;78.96;98307.88;6215281;23;20047;-87
2022/09/12 07:41:41;;;;;;;4.00;3.58;;;;;;;14.86;79.61;98290.91;6214660;23;20035;-86
2022/09/12 07:44:08;;;;;;;3.92;3.53;;;;;;;15.02;79.36;98300.06;6214999;23;20020;-86
2022/09/12 07:46:34;;;;;;;6.32;4.53;;;;;;;15.01;79.12;98309.81;6237757;23;20333;-86
2022/09/12 07:49:13;;;;;;;7.28;5.35;;;;;;;14.88;79.73;98302.88;6194362;23;20016;-85
2022/09/12 07:51:40;;;;;;;6.60;5.25;;;;;;;14.79;80.77;98290.97;6243955;23;20066;-86
2022/09/12 07:54:08;;;;;;;4.75;3.92;;;;;;;14.86;80.41;98312.00;6246039;23;20071;-85
2022/09/12 07:56:35;;;;;;;3.20;2.80;;;;;;;15.06;81.14;98306.50;6193893;23;20377;-85
2022/09/12 07:59:05;;;;;;;3.80;3.33;;;;;;;15.15;79.25;98311.25;6194037;23;20028;-86
2022/09/12 08:01:32;;;;;;;4.10;3.10;;;;;;;15.21;79.80;98299.78;6246027;23;20023;-86
2022/09/12 08:04:00;;;;;;;3.00;2.38;;;;;;;15.44;79.55;98309.63;6244912;23;20402;-85
2022/09/12 08:06:30;;;;;;;2.95;2.60;;;;;;;15.58;78.17;98326.09;6218805;23;20091;-84
2022/09/12 08:08:58;;;;;;;3.53;2.95;;;;;;;15.65;78.69;98320.72;6245037;23;20529;-90
2022/09/12 08:11:28;;;;;;;4.82;3.20;;;;;;;15.73;78.25;98325.72;6218618;23;20023;-90
2022/09/12 08:13:56;;;;;;;2.83;2.38;;;;;;;15.80;77.71;98323.78;6218213;23;20349;-91
2022/09/12 08:16:29;;;;;;;5.28;3.65;;;;;;;15.59;76.13;98314.47;6218427;23;20012;-92
2022/09/12 08:18:59;;;;;;;4.20;3.53;;;;;;;15.31;77.99;98317.75;6219032;23;20023;-89
2022/09/12 08:21:32;;;;;;;4.07;3.28;;;;;;;15.47;78.58;98318.94;6218323;23;20651;-90
2022/09/12 08:24:03;;;;;;;2.53;2.30;;;;;;;15.78;79.02;98323.19;6192778;23;20048;-90
2022/09/12 08:26:32;;;;;;;5.20;3.60;;;;;;;15.93;77.72;98320.09;6244929;22;20114;-90
2022/09/12 08:28:59;;;;;;;3.00;2.42;;;;;;;16.16;77.47;98322.78;6224132;22;20592;-89
2022/09/12 08:31:27;;;;;;;3.10;2.53;;;;;;;16.44;77.46;98329.22;6250306;22;20069;-91
2022/09/12 08:33:55;;;;;;;2.83;2.33;;;;;;;16.84;75.44;98322.16;6250415;22;20019;-88
2022/09/12 08:36:26;;;;;;;4.50;3.20;;;;;;;16.86;73.43;98313.97;6250871;22;20012;-91
2022/09/12 08:38:57;;;;;;;3.83;3.00;;;;;;;16.88;74.06;98313.75;6250921;22;20019;-92
2022/09/12 08:41:33;;;;;;;3.30;2.97;;;;;;;16.99;74.36;98313.72;6251565;22;20019;-89
2022/09/12 08:44:39;;;;;;;4.78;3.80;;;;;;;17.17;72.72;98306.63;6276188;22;20016;-88
2022/09/12 08:47:32;;;;;;;4.97;3.92;;;;;;;17.37;72.47;98306.97;6153819;23;20152;-89
2022/09/12 08:50:21;;;;;;;3.53;2.75;;;;;;;17.57;72.39;98295.91;6181930;23;20067;-89
2022/09/12 08:53:12;;;;;;;3.95;3.03;;;;;;;17.75;72.02;98298.41;6237998;22;20020;-94
2022/09/12 08:55:44;;;;;;;5.53;4.85;;;;;;;17.63;71.92;98301.09;6249844;22;20412;-90
2022/09/12 08:58:16;;;;;;;4.03;3.30;;;;;;;17.74;72.56;98291.47;6226359;22;20019;-92
2022/09/12 09:01:12;;;;;;;4.45;3.60;;;;;;;17.91;71.78;98297.56;6250872;22;20034;-90
2022/09/12 09:03:55;;;;;;;4.30;3.90;;;;;;;17.87;73.21;98291.16;6276497;22;20020;-92
2022/09/12 09:07:03;;;;;;;6.07;5.47;;;;;;;17.86;71.95;98305.44;6223855;22;20011;-93
2022/09/12 09:10:06;;;;;;;5.82;4.88;;;;;;;17.81;71.94;98296.59;6251187;22;20019;-93
2022/09/12 09:12:42;;;;;;;4.57;4.05;;;;;;;18.10;72.47;98298.13;6276154;22;20020;-93
2022/09/12 09:15:40;;;;;;;5.25;4.57;;;;;;;18.13;71.91;98300.31;6224920;22;20019;-91
2022/09/12 09:18:25;;;;;;;4.38;3.78;;;;;;;18.17;72.36;98290.00;6250651;22;20456;-92
2022/09/12 09:21:22;;;;;;;4.47;4.07;;;;;;;18.31;70.91;98307.19;6250018;22;20016;-91
2022/09/12 09:24:01;;;;;;;8.68;5.47;;;;;;;18.28;70.97;98301.56;6275895;22;20071;-89
2022/09/12 09:26:48;;;;;;;4.18;3.78;;;;;;;18.42;71.21;98293.03;6223711;23;20056;-92
2022/09/12 09:29:23;;;;;;;6.63;5.97;;;;;;;18.38;71.75;98296.41;6220827;23;20036;-95
2022/09/12 09:31:58;;;;;;;5.13;4.63;;;;;;;18.45;71.88;98281.91;6196761;23;20051;-92
2022/09/12 09:34:30;;;;;;;5.07;4.57;;;;;;;18.60;72.46;98283.97;6219207;23;20074;-90
2022/09/12 09:37:09;;;;;;;6.05;5.20;;;;;;;18.67;71.82;98279.28;6194387;23;20019;-91
2022/09/12 09:40:05;;;;;;;4.72;4.18;;;;;;;18.83;71.87;98292.75;6246583;23;20072;-92
2022/09/12 09:43:13;;;;;;;4.25;3.85;;;;;;;18.88;71.07;98275.00;6194527;23;20020;-91
2022/09/12 09:45:40;;;;;;;4.40;4.00;;;;;;;19.05;69.98;98274.13;6219633;23;20024;-91
2022/09/12 09:48:23;;;;;;;4.95;4.45;;;;;;;19.19;70.49;98278.81;6242122;23;20020;-88
2022/09/12 09:50:51;;;;;;;7.85;7.05;;;;;;;19.15;69.50;98280.34;6218609;23;20043;-91
2022/09/12 09:53:33;;;;;;;6.60;5.85;;;;;;;19.18;70.24;98284.34;6193404;23;20024;-90
2022/09/12 09:56:09;;;;;;;5.28;4.75;;;;;;;19.24;69.46;98275.38;6217992;23;20023;-90
2022/09/12 09:58:36;;;;;;;6.63;5.85;;;;;;;19.34;69.89;98267.50;6218042;23;20384;-91
2022/09/12 10:01:13;;;;;;;4.88;4.38;;;;;;;19.60;69.37;98270.41;6192047;23;20346;-90
2022/09/12 10:03:52;;;;;;;6.82;6.13;;;;;;;19.62;69.58;98268.34;6244678;23;20020;-87
2022/09/12 10:06:21;;;;;;;7.53;6.43;;;;;;;19.53;69.69;98265.28;6192894;23;20043;-88
2022/09/12 10:08:49;;;;;;;6.63;5.35;;;;;;;19.53;69.06;98260.75;6245625;23;20016;-90
2022/09/12 10:11:26;;;;;;;5.53;5.00;;;;;;;19.77;68.03;98265.78;6191510;23;20026;-91
2022/09/12 10:13:56;;;;;;;6.05;5.45;;;;;;;19.98;69.79;98262.22;6217852;23;20328;-90
2022/09/12 10:16:46;;;;;;;5.53;5.03;;;;;;;20.14;68.49;98264.97;6217525;23;20093;-90
2022/09/12 10:19:26;;;;;;;5.37;4.87;;;;;;;20.29;66.65;98262.41;6221421;23;20020;-90
2022/09/12 10:21:56;;;;;;;6.95;6.25;;;;;;;20.27;66.17;98252.00;6221289;23;20048;-88
2022/09/12 10:24:51;;;;;;;5.43;4.90;;;;;;;20.63;67.40;98262.88;6220006;22;20119;-84
2022/09/12 10:27:27;;;;;;;5.20;4.72;;;;;;;20.63;65.06;98249.53;6242746;23;20099;-84
2022/09/12 10:30:13;;;;;;;4.80;4.40;;;;;;;20.80;63.79;98262.63;6243068;23;20066;-84
2022/09/12 10:32:50;;;;;;;4.10;3.70;;;;;;;20.97;61.81;98249.91;6243050;23;20046;-83
2022/09/12 10:35:29;;;;;;;5.20;4.50;;;;;;;21.11;62.08;98253.69;6242341;23;20015;-83
2022/09/12 10:38:03;;;;;;;5.07;4.50;;;;;;;21.16;61.62;98250.19;6215762;23;20044;-83
2022/09/12 10:40:39;;;;;;;6.68;5.53;;;;;;;20.90;57.23;98251.22;6212512;23;20034;-84
2022/09/12 10:43:28;;;;;;;5.03;4.53;;;;;;;21.04;58.54;98246.97;6214738;23;20030;-83
2022/09/12 10:45:57;;;;;;;4.25;3.90;;;;;;;21.22;55.89;98248.34;6242497;23;20070;-83
2022/09/12 10:48:30;;;;;;;5.90;4.50;;;;;;;21.26;55.50;98238.75;6237135;23;20381;-82
2022/09/12 10:50:59;;;;;;;5.15;4.43;;;;;;;21.36;56.09;98239.59;6243640;23;20023;-83
2022/09/12 10:53:44;;;;;;;4.18;3.78;;;;;;;21.48;55.72;98247.34;6242205;23;20677;-81
2022/09/12 10:56:20;;;;;;;3.70;3.40;;;;;;;21.60;57.38;98234.53;6215763;23;20024;-83
2022/09/12 10:59:24;;;;;;;4.32;3.88;;;;;;;21.76;57.54;98235.31;6214816;23;20027;-83
2022/09/12 11:02:08;;;;;;;4.03;3.40;;;;;;;21.90;55.57;98235.59;6241447;23;20095;-83
2022/09/12 11:05:15;;;;;;;4.97;3.85;;;;;;;21.76;53.40;98237.97;6242175;23;20026;-86
2022/09/12 11:08:07;;;;;;;4.90;4.47;;;;;;;21.54;54.65;98240.94;6216064;23;20022;-82
2022/09/12 11:10:50;;;;;;;4.38;4.00;;;;;;;21.71;55.65;98238.00;6241949;23;20450;-85
2022/09/12 11:13:52;;;;;;;4.00;3.60;;;;;;;21.85;54.97;98238.25;6242287;23;20346;-84
2022/09/12 11:16:27;;;;;;;4.57;4.18;;;;;;;22.05;54.66;98232.88;6238470;23;20020;-85
2022/09/12 11:19:20;;;;;;;3.78;3.47;;;;;;;22.01;55.55;98223.00;6241503;23;20091;-85
2022/09/12 11:22:39;;;;;;;3.08;2.80;;;;;;;22.35;52.44;98225.88;6215780;23;20027;-83
2022/09/12 11:25:21;;;;;;;4.10;3.15;;;;;;;22.38;52.01;98222.66;6215720;23;20016;-83
2022/09/12 11:28:29;;;;;;;3.25;2.95;;;;;;;22.49;48.18;98208.19;6217217;23;20008;-84
2022/09/12 11:31:12;;;;;;;3.10;2.83;;;;;;;22.67;51.81;98212.94;6244640;23;20099;-86
2022/09/12 11:34:08;;;;;;;3.45;3.15;;;;;;;22.75;51.66;98221.44;6244050;23;20016;-83
2022/09/12 11:36:53;;;;;;;4.63;3.90;;;;;;;22.65;49.34;98211.59;6202062;23;20043;-84
2022/09/12 11:39:42;;;;;;;4.20;3.50;;;;;;;22.65;48.09;98207.03;6217838;23;20046;-82
2022/09/12 11:42:22;;;;;;;3.28;2.97;;;;;;;22.68;50.50;98195.81;6217976;23;20019;-84
2022/09/12 11:45:14;;;;;;;2.87;2.57;;;;;;;22.88;49.46;98192.22;6219048;23;20500;-85
2022/09/12 11:47:49;;;;;;;3.63;3.33;;;;;;;22.82;47.66;98197.88;6240744;23;20012;-81
2022/09/12 11:50:31;;;;;;;3.45;3.15;;;;;;;22.78;46.02;98204.81;6240844;23;20027;-84
2022/09/12 11:53:21;;;;;;;3.45;3.15;;;;;;;22.85;48.06;98199.97;6214481;23;20027;-84
2022/09/12 11:56:08;;;;;;;3.70;3.40;;;;;;;22.78;46.60;98188.78;6215816;23;20024;-82
2022/09/12 11:58:39;;;;;;;4.05;3.22;;;;;;;22.69;46.79;98197.41;6242421;23;20019;-84
2022/09/12 12:01:21;;;;;;;2.97;2.78;;;;;;;22.73;48.54;98186.97;6215745;23;20023;-82
2022/09/12 12:03:51;;;;;;;2.85;2.55;;;;;;;22.94;49.31;98193.00;6239602;23;20012;-83
2022/09/12 12:06:31;;;;;;;3.10;2.80;;;;;;;22.92;48.18;98193.28;6214399;23;20016;-83
2022/09/12 12:08:58;;;;;;;4.05;3.70;;;;;;;22.59;48.17;98192.09;6239088;23;20078;-85
2022/09/12 12:11:39;;;;;;;3.22;2.97;;;;;;;22.56;46.00;98181.16;6213184;23;20103;-83
2022/09/12 12:14:21;;;;;;;3.47;3.17;;;;;;;22.49;47.12;98186.81;6240875;23;20349;-85
2022/09/12 12:16:49;;;;;;;3.00;2.70;;;;;;;22.62;47.28;98180.06;6216632;23;20460;-83
2022/09/12 12:19:16;;;;;;;2.80;2.60;;;;;;;22.86;46.30;98185.56;6238830;23;20020;-85